sensor_id;sensor_type;location;lat;lon;timestamp;P1;durP1;ratioP1;P2;durP2;ratioP2
73337;SDS011;61575;49.908;35.556;2022-07-26T00:05:18;8.45;;;7.22;;
73337;SDS011;61575;49.908;35.556;2022-07-26T00:08:20;10.15;;;7.20;;
73337;SDS011;61575;49.908;35.556;2022-07-26T00:11:22;9.93;;;7.18;;
73337;SDS011;61575;49.908;35.556;2022-07-26T00:14:26;10.18;;;6.57;;
73337;SDS011;61575;49.908;35.556;2022-07-26T00:17:28;9.55;;;6.90;;
73337;SDS011;61575;49.908;35.556;2022-07-26T00:20:30;9.00;;;6.68;;
73337;SDS011;61575;49.908;35.556;2022-07-26T00:26:34;10.45;;;7.10;;
73337;SDS011;61575;49.908;35.556;2022-07-26T00:29:36;9.98;;;6.85;;
73337;SDS011;61575;49.908;35.556;2022-07-26T00:32:39;10.15;;;7.53;;
73337;SDS011;61575;49.908;35.556;2022-07-26T00:35:41;11.10;;;7.70;;
73337;SDS011;61575;49.908;35.556;2022-07-26T00:38:43;10.43;;;7.70;;
73337;SDS011;61575;49.908;35.556;2022-07-26T00:41:45;10.25;;;7.40;;
73337;SDS011;61575;49.908;35.556;2022-07-26T00:44:47;10.40;;;7.18;;
73337;SDS011;61575;49.908;35.556;2022-07-26T00:47:49;10.57;;;7.00;;
73337;SDS011;61575;49.908;35.556;2022-07-26T00:50:53;9.38;;;6.55;;
73337;SDS011;61575;49.908;35.556;2022-07-26T00:53:56;11.60;;;7.55;;
73337;SDS011;61575;49.908;35.556;2022-07-26T00:56:58;9.60;;;7.10;;
73337;SDS011;61575;49.908;35.556;2022-07-26T01:00:01;11.00;;;7.85;;
73337;SDS011;61575;49.908;35.556;2022-07-26T01:03:05;11.80;;;8.18;;
73337;SDS011;61575;49.908;35.556;2022-07-26T01:06:07;10.93;;;7.80;;
73337;SDS011;61575;49.908;35.556;2022-07-26T01:09:09;13.10;;;7.75;;
73337;SDS011;61575;49.908;35.556;2022-07-26T01:12:12;13.63;;;8.82;;
73337;SDS011;61575;49.908;35.556;2022-07-26T01:15:14;11.90;;;8.15;;
73337;SDS011;61575;49.908;35.556;2022-07-26T01:18:16;12.43;;;8.65;;
73337;SDS011;61575;49.908;35.556;2022-07-26T01:21:18;12.10;;;8.65;;
73337;SDS011;61575;49.908;35.556;2022-07-26T01:24:22;13.40;;;8.50;;
73337;SDS011;61575;49.908;35.556;2022-07-26T01:27:24;12.75;;;8.52;;
73337;SDS011;61575;49.908;35.556;2022-07-26T01:30:31;11.80;;;8.73;;
73337;SDS011;61575;49.908;35.556;2022-07-26T01:33:33;12.25;;;9.27;;
73337;SDS011;61575;49.908;35.556;2022-07-26T01:36:35;15.85;;;9.70;;
73337;SDS011;61575;49.908;35.556;2022-07-26T01:39:40;12.43;;;9.27;;
73337;SDS011;61575;49.908;35.556;2022-07-26T01:42:41;13.02;;;9.13;;
73337;SDS011;61575;49.908;35.556;2022-07-26T01:45:44;15.07;;;9.82;;
73337;SDS011;61575;49.908;35.556;2022-07-26T01:48:46;14.07;;;10.40;;
73337;SDS011;61575;49.908;35.556;2022-07-26T01:51:48;14.57;;;10.73;;
73337;SDS011;61575;49.908;35.556;2022-07-26T01:54:50;18.55;;;10.90;;
73337;SDS011;61575;49.908;35.556;2022-07-26T01:57:51;13.40;;;10.30;;
73337;SDS011;61575;49.908;35.556;2022-07-26T02:00:54;15.52;;;10.38;;
73337;SDS011;61575;49.908;35.556;2022-07-26T02:03:56;13.65;;;9.25;;
73337;SDS011;61575;49.908;35.556;2022-07-26T02:06:57;12.48;;;9.25;;
73337;SDS011;61575;49.908;35.556;2022-07-26T02:10:00;13.55;;;10.00;;
73337;SDS011;61575;49.908;35.556;2022-07-26T02:13:02;16.75;;;10.00;;
73337;SDS011;61575;49.908;35.556;2022-07-26T02:16:10;12.30;;;9.10;;
73337;SDS011;61575;49.908;35.556;2022-07-26T02:19:15;12.02;;;9.02;;
73337;SDS011;61575;49.908;35.556;2022-07-26T02:22:17;12.32;;;9.43;;
73337;SDS011;61575;49.908;35.556;2022-07-26T02:25:20;12.90;;;9.02;;
73337;SDS011;61575;49.908;35.556;2022-07-26T02:28:22;14.02;;;8.85;;
73337;SDS011;61575;49.908;35.556;2022-07-26T02:31:24;12.55;;;9.40;;
73337;SDS011;61575;49.908;35.556;2022-07-26T02:34:33;12.52;;;9.85;;
73337;SDS011;61575;49.908;35.556;2022-07-26T02:37:35;13.95;;;9.25;;
73337;SDS011;61575;49.908;35.556;2022-07-26T02:40:44;13.40;;;9.10;;
73337;SDS011;61575;49.908;35.556;2022-07-26T02:43:46;12.43;;;9.70;;
73337;SDS011;61575;49.908;35.556;2022-07-26T02:46:48;13.07;;;9.52;;
73337;SDS011;61575;49.908;35.556;2022-07-26T02:49:51;12.75;;;9.25;;
73337;SDS011;61575;49.908;35.556;2022-07-26T02:52:53;13.27;;;9.52;;
73337;SDS011;61575;49.908;35.556;2022-07-26T02:55:55;12.63;;;9.70;;
73337;SDS011;61575;49.908;35.556;2022-07-26T02:58:57;13.80;;;10.00;;
73337;SDS011;61575;49.908;35.556;2022-07-26T03:01:59;14.00;;;10.05;;
73337;SDS011;61575;49.908;35.556;2022-07-26T03:05:02;14.43;;;9.38;;
73337;SDS011;61575;49.908;35.556;2022-07-26T03:08:05;13.85;;;10.02;;
73337;SDS011;61575;49.908;35.556;2022-07-26T03:11:07;14.60;;;9.40;;
73337;SDS011;61575;49.908;35.556;2022-07-26T03:14:12;11.38;;;9.25;;
73337;SDS011;61575;49.908;35.556;2022-07-26T03:17:14;13.18;;;10.20;;
73337;SDS011;61575;49.908;35.556;2022-07-26T03:20:16;13.27;;;9.75;;
73337;SDS011;61575;49.908;35.556;2022-07-26T03:23:18;13.55;;;10.02;;
73337;SDS011;61575;49.908;35.556;2022-07-26T03:26:20;14.93;;;10.52;;
73337;SDS011;61575;49.908;35.556;2022-07-26T03:29:22;13.30;;;9.80;;
73337;SDS011;61575;49.908;35.556;2022-07-26T03:32:24;12.27;;;9.10;;
73337;SDS011;61575;49.908;35.556;2022-07-26T03:35:26;14.15;;;9.80;;
73337;SDS011;61575;49.908;35.556;2022-07-26T03:38:28;13.90;;;10.88;;
73337;SDS011;61575;49.908;35.556;2022-07-26T03:41:30;13.43;;;10.10;;
73337;SDS011;61575;49.908;35.556;2022-07-26T03:44:32;13.38;;;10.20;;
73337;SDS011;61575;49.908;35.556;2022-07-26T03:47:34;14.60;;;10.77;;
73337;SDS011;61575;49.908;35.556;2022-07-26T03:50:35;12.13;;;9.43;;
73337;SDS011;61575;49.908;35.556;2022-07-26T03:53:37;15.23;;;10.57;;
73337;SDS011;61575;49.908;35.556;2022-07-26T03:56:39;13.60;;;9.75;;
73337;SDS011;61575;49.908;35.556;2022-07-26T03:59:41;13.82;;;10.52;;
73337;SDS011;61575;49.908;35.556;2022-07-26T04:02:43;13.27;;;10.70;;
73337;SDS011;61575;49.908;35.556;2022-07-26T04:05:45;14.60;;;10.52;;
73337;SDS011;61575;49.908;35.556;2022-07-26T04:08:49;15.10;;;10.77;;
73337;SDS011;61575;49.908;35.556;2022-07-26T04:11:51;14.05;;;10.45;;
73337;SDS011;61575;49.908;35.556;2022-07-26T04:14:53;16.05;;;10.40;;
73337;SDS011;61575;49.908;35.556;2022-07-26T04:17:55;14.32;;;11.00;;
73337;SDS011;61575;49.908;35.556;2022-07-26T04:20:57;15.25;;;11.07;;
73337;SDS011;61575;49.908;35.556;2022-07-26T04:23:59;13.82;;;10.88;;
73337;SDS011;61575;49.908;35.556;2022-07-26T04:27:01;13.75;;;11.02;;
73337;SDS011;61575;49.908;35.556;2022-07-26T04:30:06;16.02;;;11.57;;
73337;SDS011;61575;49.908;35.556;2022-07-26T04:33:15;14.63;;;10.60;;
73337;SDS011;61575;49.908;35.556;2022-07-26T04:36:17;14.48;;;10.75;;
73337;SDS011;61575;49.908;35.556;2022-07-26T04:39:19;15.23;;;11.57;;
73337;SDS011;61575;49.908;35.556;2022-07-26T04:42:25;14.75;;;12.02;;
73337;SDS011;61575;49.908;35.556;2022-07-26T04:45:27;13.65;;;11.45;;
73337;SDS011;61575;49.908;35.556;2022-07-26T04:48:29;15.30;;;11.95;;
73337;SDS011;61575;49.908;35.556;2022-07-26T04:51:31;14.95;;;11.82;;
73337;SDS011;61575;49.908;35.556;2022-07-26T04:54:33;14.00;;;11.38;;
73337;SDS011;61575;49.908;35.556;2022-07-26T04:57:35;14.18;;;11.02;;
73337;SDS011;61575;49.908;35.556;2022-07-26T05:00:37;16.00;;;11.25;;
73337;SDS011;61575;49.908;35.556;2022-07-26T05:03:59;15.90;;;12.20;;
73337;SDS011;61575;49.908;35.556;2022-07-26T05:07:01;17.70;;;11.43;;
73337;SDS011;61575;49.908;35.556;2022-07-26T05:10:03;14.40;;;10.98;;
73337;SDS011;61575;49.908;35.556;2022-07-26T05:13:07;14.15;;;11.07;;
73337;SDS011;61575;49.908;35.556;2022-07-26T05:16:09;16.48;;;12.05;;
73337;SDS011;61575;49.908;35.556;2022-07-26T05:19:12;15.20;;;11.68;;
73337;SDS011;61575;49.908;35.556;2022-07-26T05:25:16;14.75;;;11.35;;
73337;SDS011;61575;49.908;35.556;2022-07-26T05:28:18;13.75;;;10.50;;
73337;SDS011;61575;49.908;35.556;2022-07-26T05:31:20;13.43;;;10.13;;
73337;SDS011;61575;49.908;35.556;2022-07-26T05:34:22;13.35;;;10.25;;
73337;SDS011;61575;49.908;35.556;2022-07-26T05:37:25;13.35;;;10.23;;
73337;SDS011;61575;49.908;35.556;2022-07-26T05:40:27;12.52;;;10.57;;
73337;SDS011;61575;49.908;35.556;2022-07-26T05:43:29;15.15;;;11.63;;
73337;SDS011;61575;49.908;35.556;2022-07-26T05:46:42;14.40;;;11.60;;
73337;SDS011;61575;49.908;35.556;2022-07-26T05:49:44;15.55;;;10.98;;
73337;SDS011;61575;49.908;35.556;2022-07-26T05:52:45;16.48;;;11.20;;
73337;SDS011;61575;49.908;35.556;2022-07-26T05:55:47;12.75;;;10.70;;
73337;SDS011;61575;49.908;35.556;2022-07-26T05:58:49;13.02;;;10.10;;
73337;SDS011;61575;49.908;35.556;2022-07-26T06:01:51;11.95;;;9.95;;
73337;SDS011;61575;49.908;35.556;2022-07-26T06:04:57;12.93;;;8.63;;
73337;SDS011;61575;49.908;35.556;2022-07-26T06:07:59;11.80;;;8.25;;
73337;SDS011;61575;49.908;35.556;2022-07-26T06:11:00;11.48;;;7.82;;
73337;SDS011;61575;49.908;35.556;2022-07-26T06:14:02;10.00;;;7.95;;
73337;SDS011;61575;49.908;35.556;2022-07-26T06:17:04;9.07;;;7.82;;
73337;SDS011;61575;49.908;35.556;2022-07-26T06:20:06;11.35;;;8.52;;
73337;SDS011;61575;49.908;35.556;2022-07-26T06:23:09;10.48;;;7.35;;
73337;SDS011;61575;49.908;35.556;2022-07-26T06:26:11;8.52;;;6.97;;
73337;SDS011;61575;49.908;35.556;2022-07-26T06:29:13;10.25;;;6.90;;
73337;SDS011;61575;49.908;35.556;2022-07-26T06:32:15;9.10;;;6.47;;
73337;SDS011;61575;49.908;35.556;2022-07-26T06:35:17;7.80;;;6.03;;
73337;SDS011;61575;49.908;35.556;2022-07-26T06:38:19;11.25;;;7.03;;
73337;SDS011;61575;49.908;35.556;2022-07-26T06:41:21;8.20;;;5.65;;
73337;SDS011;61575;49.908;35.556;2022-07-26T06:47:25;6.70;;;5.50;;
73337;SDS011;61575;49.908;35.556;2022-07-26T06:50:27;7.03;;;5.10;;
73337;SDS011;61575;49.908;35.556;2022-07-26T06:53:29;8.07;;;5.00;;
73337;SDS011;61575;49.908;35.556;2022-07-26T06:56:31;6.90;;;5.25;;
73337;SDS011;61575;49.908;35.556;2022-07-26T07:02:35;7.07;;;4.73;;
73337;SDS011;61575;49.908;35.556;2022-07-26T07:05:37;6.85;;;4.75;;
73337;SDS011;61575;49.908;35.556;2022-07-26T07:08:39;6.30;;;5.13;;
73337;SDS011;61575;49.908;35.556;2022-07-26T07:11:42;6.78;;;5.70;;
73337;SDS011;61575;49.908;35.556;2022-07-26T07:14:45;6.63;;;5.40;;
73337;SDS011;61575;49.908;35.556;2022-07-26T07:17:47;7.43;;;5.80;;
73337;SDS011;61575;49.908;35.556;2022-07-26T07:20:49;7.97;;;5.53;;
73337;SDS011;61575;49.908;35.556;2022-07-26T07:23:51;8.13;;;5.88;;
73337;SDS011;61575;49.908;35.556;2022-07-26T07:26:53;7.47;;;5.45;;
73337;SDS011;61575;49.908;35.556;2022-07-26T07:29:55;6.75;;;5.65;;
73337;SDS011;61575;49.908;35.556;2022-07-26T07:32:58;10.15;;;5.00;;
73337;SDS011;61575;49.908;35.556;2022-07-26T07:35:59;8.00;;;5.43;;
73337;SDS011;61575;49.908;35.556;2022-07-26T07:39:01;7.35;;;5.65;;
73337;SDS011;61575;49.908;35.556;2022-07-26T07:42:08;6.30;;;5.20;;
73337;SDS011;61575;49.908;35.556;2022-07-26T07:45:10;7.82;;;5.47;;
73337;SDS011;61575;49.908;35.556;2022-07-26T07:48:12;7.57;;;5.32;;
73337;SDS011;61575;49.908;35.556;2022-07-26T07:51:14;6.72;;;5.65;;
73337;SDS011;61575;49.908;35.556;2022-07-26T07:54:17;6.35;;;5.38;;
73337;SDS011;61575;49.908;35.556;2022-07-26T07:57:22;8.18;;;5.10;;
73337;SDS011;61575;49.908;35.556;2022-07-26T08:03:27;7.95;;;5.05;;
73337;SDS011;61575;49.908;35.556;2022-07-26T08:06:39;5.93;;;4.68;;
73337;SDS011;61575;49.908;35.556;2022-07-26T08:09:41;6.30;;;5.05;;
73337;SDS011;61575;49.908;35.556;2022-07-26T08:15:45;9.02;;;4.60;;
73337;SDS011;61575;49.908;35.556;2022-07-26T08:18:49;5.93;;;4.30;;
73337;SDS011;61575;49.908;35.556;2022-07-26T08:21:58;6.78;;;3.90;;
73337;SDS011;61575;49.908;35.556;2022-07-26T08:25:01;5.75;;;3.60;;
73337;SDS011;61575;49.908;35.556;2022-07-26T08:28:04;5.47;;;3.67;;
73337;SDS011;61575;49.908;35.556;2022-07-26T08:31:06;4.82;;;3.47;;
73337;SDS011;61575;49.908;35.556;2022-07-26T08:34:08;4.93;;;3.10;;
73337;SDS011;61575;49.908;35.556;2022-07-26T08:40:18;4.25;;;3.30;;
73337;SDS011;61575;49.908;35.556;2022-07-26T08:43:21;4.82;;;3.55;;
73337;SDS011;61575;49.908;35.556;2022-07-26T08:46:23;4.97;;;3.60;;
73337;SDS011;61575;49.908;35.556;2022-07-26T08:49:28;5.65;;;3.78;;
73337;SDS011;61575;49.908;35.556;2022-07-26T08:52:30;4.53;;;3.30;;
73337;SDS011;61575;49.908;35.556;2022-07-26T08:55:32;4.72;;;2.92;;
73337;SDS011;61575;49.908;35.556;2022-07-26T09:02:04;5.68;;;3.15;;
73337;SDS011;61575;49.908;35.556;2022-07-26T09:05:10;5.65;;;3.33;;
73337;SDS011;61575;49.908;35.556;2022-07-26T09:08:23;4.75;;;2.83;;
73337;SDS011;61575;49.908;35.556;2022-07-26T09:11:28;5.05;;;3.03;;
73337;SDS011;61575;49.908;35.556;2022-07-26T09:14:35;5.38;;;3.33;;
73337;SDS011;61575;49.908;35.556;2022-07-26T09:20:45;6.10;;;3.97;;
73337;SDS011;61575;49.908;35.556;2022-07-26T09:23:48;6.15;;;3.20;;
73337;SDS011;61575;49.908;35.556;2022-07-26T09:26:54;4.60;;;3.30;;
73337;SDS011;61575;49.908;35.556;2022-07-26T09:30:01;5.20;;;3.17;;
73337;SDS011;61575;49.908;35.556;2022-07-26T09:33:08;4.65;;;3.10;;
73337;SDS011;61575;49.908;35.556;2022-07-26T09:39:12;5.88;;;3.28;;
73337;SDS011;61575;49.908;35.556;2022-07-26T09:42:15;9.82;;;5.60;;
73337;SDS011;61575;49.908;35.556;2022-07-26T09:45:30;9.25;;;4.30;;
73337;SDS011;61575;49.908;35.556;2022-07-26T09:48:34;4.68;;;3.15;;
73337;SDS011;61575;49.908;35.556;2022-07-26T09:51:59;5.30;;;3.22;;
73337;SDS011;61575;49.908;35.556;2022-07-26T09:58:07;4.75;;;3.00;;
73337;SDS011;61575;49.908;35.556;2022-07-26T10:01:10;4.75;;;2.80;;
73337;SDS011;61575;49.908;35.556;2022-07-26T10:04:13;5.20;;;2.85;;
73337;SDS011;61575;49.908;35.556;2022-07-26T10:07:15;4.25;;;2.50;;
73337;SDS011;61575;49.908;35.556;2022-07-26T10:10:28;6.35;;;2.70;;
73337;SDS011;61575;49.908;35.556;2022-07-26T10:13:35;3.70;;;2.55;;
73337;SDS011;61575;49.908;35.556;2022-07-26T10:16:38;5.30;;;2.65;;
73337;SDS011;61575;49.908;35.556;2022-07-26T10:19:41;5.40;;;2.60;;
73337;SDS011;61575;49.908;35.556;2022-07-26T10:22:46;4.32;;;2.20;;
73337;SDS011;61575;49.908;35.556;2022-07-26T10:25:51;3.88;;;2.47;;
73337;SDS011;61575;49.908;35.556;2022-07-26T10:28:52;4.90;;;2.55;;
73337;SDS011;61575;49.908;35.556;2022-07-26T10:34:56;5.55;;;2.42;;
73337;SDS011;61575;49.908;35.556;2022-07-26T10:41:06;6.97;;;2.85;;
73337;SDS011;61575;49.908;35.556;2022-07-26T10:47:24;4.20;;;2.72;;
73337;SDS011;61575;49.908;35.556;2022-07-26T10:53:34;4.65;;;2.70;;
73337;SDS011;61575;49.908;35.556;2022-07-26T10:56:37;9.05;;;3.10;;
73337;SDS011;61575;49.908;35.556;2022-07-26T10:59:40;4.57;;;2.75;;
73337;SDS011;61575;49.908;35.556;2022-07-26T11:02:56;4.95;;;3.03;;
73337;SDS011;61575;49.908;35.556;2022-07-26T11:06:07;6.03;;;3.00;;
73337;SDS011;61575;49.908;35.556;2022-07-26T11:09:10;4.43;;;3.03;;
73337;SDS011;61575;49.908;35.556;2022-07-26T11:12:13;5.00;;;2.50;;
73337;SDS011;61575;49.908;35.556;2022-07-26T11:15:19;3.72;;;2.55;;
73337;SDS011;61575;49.908;35.556;2022-07-26T11:18:22;4.70;;;2.53;;
73337;SDS011;61575;49.908;35.556;2022-07-26T11:21:28;4.55;;;2.47;;
73337;SDS011;61575;49.908;35.556;2022-07-26T11:27:31;3.80;;;2.45;;
73337;SDS011;61575;49.908;35.556;2022-07-26T11:33:40;4.47;;;2.42;;
73337;SDS011;61575;49.908;35.556;2022-07-26T11:36:44;4.13;;;2.35;;
73337;SDS011;61575;49.908;35.556;2022-07-26T11:39:47;6.28;;;3.00;;
73337;SDS011;61575;49.908;35.556;2022-07-26T11:45:54;4.32;;;2.70;;
73337;SDS011;61575;49.908;35.556;2022-07-26T11:52:01;3.50;;;2.53;;
73337;SDS011;61575;49.908;35.556;2022-07-26T11:55:04;4.32;;;2.92;;
73337;SDS011;61575;49.908;35.556;2022-07-26T11:58:07;6.57;;;3.13;;
73337;SDS011;61575;49.908;35.556;2022-07-26T12:01:09;3.85;;;2.58;;
73337;SDS011;61575;49.908;35.556;2022-07-26T12:04:26;4.50;;;2.80;;
73337;SDS011;61575;49.908;35.556;2022-07-26T12:07:30;4.05;;;2.35;;
73337;SDS011;61575;49.908;35.556;2022-07-26T12:16:56;3.67;;;2.60;;
73337;SDS011;61575;49.908;35.556;2022-07-26T12:20:11;6.75;;;3.08;;
73337;SDS011;61575;49.908;35.556;2022-07-26T12:23:14;5.50;;;2.90;;
73337;SDS011;61575;49.908;35.556;2022-07-26T12:26:26;5.95;;;3.25;;
73337;SDS011;61575;49.908;35.556;2022-07-26T12:29:32;5.15;;;2.90;;
73337;SDS011;61575;49.908;35.556;2022-07-26T12:32:37;5.82;;;3.40;;
73337;SDS011;61575;49.908;35.556;2022-07-26T12:35:42;4.32;;;2.60;;
73337;SDS011;61575;49.908;35.556;2022-07-26T12:38:44;3.45;;;2.42;;
73337;SDS011;61575;49.908;35.556;2022-07-26T12:41:48;5.15;;;2.90;;
73337;SDS011;61575;49.908;35.556;2022-07-26T12:44:54;4.28;;;2.90;;
73337;SDS011;61575;49.908;35.556;2022-07-26T12:47:58;5.32;;;3.05;;
73337;SDS011;61575;49.908;35.556;2022-07-26T12:51:01;4.47;;;2.80;;
73337;SDS011;61575;49.908;35.556;2022-07-26T12:54:03;5.20;;;3.00;;
73337;SDS011;61575;49.908;35.556;2022-07-26T12:57:07;5.35;;;3.40;;
73337;SDS011;61575;49.908;35.556;2022-07-26T13:00:09;5.75;;;2.97;;
73337;SDS011;61575;49.908;35.556;2022-07-26T13:03:12;5.88;;;3.90;;
73337;SDS011;61575;49.908;35.556;2022-07-26T13:06:15;4.60;;;3.50;;
73337;SDS011;61575;49.908;35.556;2022-07-26T13:12:19;6.38;;;4.18;;
73337;SDS011;61575;49.908;35.556;2022-07-26T13:15:21;7.32;;;3.97;;
73337;SDS011;61575;49.908;35.556;2022-07-26T13:18:35;4.78;;;3.40;;
73337;SDS011;61575;49.908;35.556;2022-07-26T13:24:40;5.22;;;3.58;;
73337;SDS011;61575;49.908;35.556;2022-07-26T13:27:44;5.18;;;3.75;;
73337;SDS011;61575;49.908;35.556;2022-07-26T13:33:50;6.03;;;3.85;;
73337;SDS011;61575;49.908;35.556;2022-07-26T13:42:57;5.47;;;3.30;;
73337;SDS011;61575;49.908;35.556;2022-07-26T13:45:59;5.53;;;3.40;;
73337;SDS011;61575;49.908;35.556;2022-07-26T13:49:02;4.82;;;3.47;;
73337;SDS011;61575;49.908;35.556;2022-07-26T13:52:05;6.53;;;4.32;;
73337;SDS011;61575;49.908;35.556;2022-07-26T13:55:15;10.30;;;6.55;;
73337;SDS011;61575;49.908;35.556;2022-07-26T13:58:17;7.28;;;4.03;;
73337;SDS011;61575;49.908;35.556;2022-07-26T14:01:22;5.22;;;3.70;;
73337;SDS011;61575;49.908;35.556;2022-07-26T14:04:44;6.13;;;3.72;;
73337;SDS011;61575;49.908;35.556;2022-07-26T14:07:45;7.00;;;5.22;;
73337;SDS011;61575;49.908;35.556;2022-07-26T14:10:48;5.68;;;3.30;;
73337;SDS011;61575;49.908;35.556;2022-07-26T14:13:50;4.10;;;3.17;;
73337;SDS011;61575;49.908;35.556;2022-07-26T14:16:52;5.05;;;3.20;;
73337;SDS011;61575;49.908;35.556;2022-07-26T14:19:54;6.05;;;2.97;;
73337;SDS011;61575;49.908;35.556;2022-07-26T14:22:56;4.65;;;3.30;;
73337;SDS011;61575;49.908;35.556;2022-07-26T14:25:58;4.25;;;3.00;;
73337;SDS011;61575;49.908;35.556;2022-07-26T14:29:00;6.40;;;3.15;;
73337;SDS011;61575;49.908;35.556;2022-07-26T14:32:02;4.97;;;3.00;;
73337;SDS011;61575;49.908;35.556;2022-07-26T14:35:05;4.00;;;3.03;;
73337;SDS011;61575;49.908;35.556;2022-07-26T14:38:07;4.78;;;3.30;;
73337;SDS011;61575;49.908;35.556;2022-07-26T14:44:11;4.63;;;3.03;;
73337;SDS011;61575;49.908;35.556;2022-07-26T14:47:15;5.03;;;3.30;;
73337;SDS011;61575;49.908;35.556;2022-07-26T14:50:17;4.57;;;3.30;;
73337;SDS011;61575;49.908;35.556;2022-07-26T14:53:19;4.18;;;2.90;;
73337;SDS011;61575;49.908;35.556;2022-07-26T14:56:21;5.03;;;2.60;;
73337;SDS011;61575;49.908;35.556;2022-07-26T15:02:24;4.80;;;3.10;;
73337;SDS011;61575;49.908;35.556;2022-07-26T15:05:27;4.93;;;3.10;;
73337;SDS011;61575;49.908;35.556;2022-07-26T15:08:29;4.60;;;3.20;;
73337;SDS011;61575;49.908;35.556;2022-07-26T15:11:31;6.13;;;3.10;;
73337;SDS011;61575;49.908;35.556;2022-07-26T15:14:33;5.65;;;3.58;;
73337;SDS011;61575;49.908;35.556;2022-07-26T15:17:36;10.65;;;7.25;;
73337;SDS011;61575;49.908;35.556;2022-07-26T15:20:38;4.40;;;3.10;;
73337;SDS011;61575;49.908;35.556;2022-07-26T15:23:41;6.22;;;3.85;;
73337;SDS011;61575;49.908;35.556;2022-07-26T15:26:43;4.68;;;3.40;;
73337;SDS011;61575;49.908;35.556;2022-07-26T15:29:47;5.22;;;3.45;;
73337;SDS011;61575;49.908;35.556;2022-07-26T15:32:51;4.50;;;3.13;;
73337;SDS011;61575;49.908;35.556;2022-07-26T15:35:53;5.82;;;2.75;;
73337;SDS011;61575;49.908;35.556;2022-07-26T15:38:55;4.43;;;2.58;;
73337;SDS011;61575;49.908;35.556;2022-07-26T15:42:14;4.25;;;2.80;;
73337;SDS011;61575;49.908;35.556;2022-07-26T15:45:17;4.93;;;2.58;;
73337;SDS011;61575;49.908;35.556;2022-07-26T15:48:20;4.93;;;2.33;;
73337;SDS011;61575;49.908;35.556;2022-07-26T15:51:23;4.50;;;2.90;;
73337;SDS011;61575;49.908;35.556;2022-07-26T15:54:27;4.03;;;2.20;;
73337;SDS011;61575;49.908;35.556;2022-07-26T15:57:29;3.97;;;2.20;;
73337;SDS011;61575;49.908;35.556;2022-07-26T16:03:32;4.18;;;2.55;;
73337;SDS011;61575;49.908;35.556;2022-07-26T16:06:35;3.63;;;2.45;;
73337;SDS011;61575;49.908;35.556;2022-07-26T16:12:38;5.25;;;2.85;;
73337;SDS011;61575;49.908;35.556;2022-07-26T16:15:42;5.25;;;2.78;;
73337;SDS011;61575;49.908;35.556;2022-07-26T16:21:45;4.28;;;2.90;;
73337;SDS011;61575;49.908;35.556;2022-07-26T16:27:49;6.03;;;2.65;;
73337;SDS011;61575;49.908;35.556;2022-07-26T16:30:53;4.68;;;2.53;;
73337;SDS011;61575;49.908;35.556;2022-07-26T16:33:55;4.50;;;3.08;;
73337;SDS011;61575;49.908;35.556;2022-07-26T16:36:57;5.70;;;3.70;;
73337;SDS011;61575;49.908;35.556;2022-07-26T16:43:01;4.30;;;2.80;;
73337;SDS011;61575;49.908;35.556;2022-07-26T16:46:12;3.45;;;2.33;;
73337;SDS011;61575;49.908;35.556;2022-07-26T16:49:14;5.90;;;2.40;;
73337;SDS011;61575;49.908;35.556;2022-07-26T16:52:17;5.53;;;2.42;;
73337;SDS011;61575;49.908;35.556;2022-07-26T16:58:21;3.83;;;2.00;;
73337;SDS011;61575;49.908;35.556;2022-07-26T17:01:23;7.57;;;2.30;;
73337;SDS011;61575;49.908;35.556;2022-07-26T17:04:25;7.63;;;2.10;;
73337;SDS011;61575;49.908;35.556;2022-07-26T17:07:27;4.45;;;2.75;;
73337;SDS011;61575;49.908;35.556;2022-07-26T17:13:31;3.45;;;1.80;;
73337;SDS011;61575;49.908;35.556;2022-07-26T17:19:35;4.38;;;1.90;;
73337;SDS011;61575;49.908;35.556;2022-07-26T17:25:41;4.53;;;2.10;;
73337;SDS011;61575;49.908;35.556;2022-07-26T17:28:43;4.45;;;2.10;;
73337;SDS011;61575;49.908;35.556;2022-07-26T17:34:46;5.70;;;2.60;;
73337;SDS011;61575;49.908;35.556;2022-07-26T17:37:48;5.53;;;2.13;;
73337;SDS011;61575;49.908;35.556;2022-07-26T17:40:50;6.95;;;2.30;;
73337;SDS011;61575;49.908;35.556;2022-07-26T17:43:53;6.75;;;2.55;;
73337;SDS011;61575;49.908;35.556;2022-07-26T17:46:55;5.80;;;2.25;;
73337;SDS011;61575;49.908;35.556;2022-07-26T17:49:59;5.15;;;1.90;;
73337;SDS011;61575;49.908;35.556;2022-07-26T17:53:23;3.42;;;1.90;;
73337;SDS011;61575;49.908;35.556;2022-07-26T17:56:35;3.40;;;1.80;;
73337;SDS011;61575;49.908;35.556;2022-07-26T17:59:36;4.03;;;2.05;;
73337;SDS011;61575;49.908;35.556;2022-07-26T18:02:38;3.60;;;1.50;;
73337;SDS011;61575;49.908;35.556;2022-07-26T18:05:41;3.60;;;1.90;;
73337;SDS011;61575;49.908;35.556;2022-07-26T18:08:43;3.25;;;1.75;;
73337;SDS011;61575;49.908;35.556;2022-07-26T18:11:45;3.20;;;1.80;;
73337;SDS011;61575;49.908;35.556;2022-07-26T18:14:47;3.80;;;1.90;;
73337;SDS011;61575;49.908;35.556;2022-07-26T18:17:49;4.05;;;2.00;;
73337;SDS011;61575;49.908;35.556;2022-07-26T18:20:51;3.13;;;1.80;;
73337;SDS011;61575;49.908;35.556;2022-07-26T18:23:53;5.47;;;1.90;;
73337;SDS011;61575;49.908;35.556;2022-07-26T18:27:16;3.47;;;1.70;;
73337;SDS011;61575;49.908;35.556;2022-07-26T18:30:18;3.35;;;2.40;;
73337;SDS011;61575;49.908;35.556;2022-07-26T18:36:23;4.30;;;2.35;;
73337;SDS011;61575;49.908;35.556;2022-07-26T18:39:25;5.03;;;2.17;;
73337;SDS011;61575;49.908;35.556;2022-07-26T18:42:33;3.53;;;2.20;;
73337;SDS011;61575;49.908;35.556;2022-07-26T18:45:37;5.55;;;2.30;;
73337;SDS011;61575;49.908;35.556;2022-07-26T18:48:38;5.72;;;2.35;;
73337;SDS011;61575;49.908;35.556;2022-07-26T18:51:43;5.50;;;2.13;;
73337;SDS011;61575;49.908;35.556;2022-07-26T18:54:49;3.30;;;2.20;;
73337;SDS011;61575;49.908;35.556;2022-07-26T18:57:53;4.55;;;2.50;;
73337;SDS011;61575;49.908;35.556;2022-07-26T19:00:56;3.70;;;2.70;;
73337;SDS011;61575;49.908;35.556;2022-07-26T19:03:58;5.70;;;2.83;;
73337;SDS011;61575;49.908;35.556;2022-07-26T19:07:07;8.20;;;2.72;;
73337;SDS011;61575;49.908;35.556;2022-07-26T19:10:11;6.43;;;2.50;;
73337;SDS011;61575;49.908;35.556;2022-07-26T19:13:15;4.93;;;3.00;;
73337;SDS011;61575;49.908;35.556;2022-07-26T19:16:17;4.75;;;2.83;;
73337;SDS011;61575;49.908;35.556;2022-07-26T19:19:20;4.22;;;2.88;;
73337;SDS011;61575;49.908;35.556;2022-07-26T19:22:30;4.30;;;2.80;;
73337;SDS011;61575;49.908;35.556;2022-07-26T19:25:34;4.20;;;3.05;;
73337;SDS011;61575;49.908;35.556;2022-07-26T19:28:39;6.05;;;2.90;;
73337;SDS011;61575;49.908;35.556;2022-07-26T19:31:41;5.00;;;3.13;;
73337;SDS011;61575;49.908;35.556;2022-07-26T19:34:47;4.93;;;3.03;;
73337;SDS011;61575;49.908;35.556;2022-07-26T19:37:50;8.60;;;3.67;;
73337;SDS011;61575;49.908;35.556;2022-07-26T19:40:51;5.95;;;3.20;;
73337;SDS011;61575;49.908;35.556;2022-07-26T19:43:57;5.20;;;2.92;;
73337;SDS011;61575;49.908;35.556;2022-07-26T19:47:00;5.43;;;3.05;;
73337;SDS011;61575;49.908;35.556;2022-07-26T19:50:03;6.80;;;3.13;;
73337;SDS011;61575;49.908;35.556;2022-07-26T19:53:06;5.30;;;2.80;;
73337;SDS011;61575;49.908;35.556;2022-07-26T19:56:19;4.37;;;2.83;;
73337;SDS011;61575;49.908;35.556;2022-07-26T19:59:21;4.07;;;3.10;;
73337;SDS011;61575;49.908;35.556;2022-07-26T20:02:25;5.85;;;3.63;;
73337;SDS011;61575;49.908;35.556;2022-07-26T20:05:28;5.28;;;3.75;;